sensor_id;sensor_type;location;lat;lon;timestamp;pressure;altitude;pressure_sealevel;temperature;humidity
14117;BME280;7137;51.436;6.544;2023-01-23T00:02:44;103010.25;;;2.93;100.00
14117;BME280;7137;51.436;6.544;2023-01-23T00:05:55;103003.69;;;2.79;100.00
14117;BME280;7137;51.436;6.544;2023-01-23T00:08:57;103007.44;;;2.87;100.00
14117;BME280;7137;51.436;6.544;2023-01-23T00:11:58;103006.16;;;2.76;100.00
14117;BME280;7137;51.436;6.544;2023-01-23T00:15:00;103008.22;;;2.85;100.00
14117;BME280;7137;51.436;6.544;2023-01-23T00:18:01;103001.13;;;2.79;100.00
14117;BME280;7137;51.436;6.544;2023-01-23T00:21:05;102999.94;;;2.93;100.00
14117;BME280;7137;51.436;6.544;2023-01-23T00:24:09;102995.78;;;2.75;100.00
14117;BME280;7137;51.436;6.544;2023-01-23T00:27:11;103007.50;;;2.66;100.00
14117;BME280;7137;51.436;6.544;2023-01-23T00:30:14;103004.41;;;2.53;100.00
14117;BME280;7137;51.436;6.544;2023-01-23T00:33:16;103005.75;;;2.65;100.00
14117;BME280;7137;51.436;6.544;2023-01-23T00:36:19;103004.41;;;2.75;100.00
14117;BME280;7137;51.436;6.544;2023-01-23T00:39:21;103008.06;;;2.58;100.00
14117;BME280;7137;51.436;6.544;2023-01-23T00:42:23;103000.66;;;2.45;100.00
14117;BME280;7137;51.436;6.544;2023-01-23T00:45:25;102995.97;;;2.57;100.00
14117;BME280;7137;51.436;6.544;2023-01-23T00:48:26;102998.03;;;2.43;100.00
14117;BME280;7137;51.436;6.544;2023-01-23T00:51:29;102996.94;;;2.38;100.00
14117;BME280;7137;51.436;6.544;2023-01-23T00:54:31;102998.31;;;2.51;100.00
14117;BME280;7137;51.436;6.544;2023-01-23T00:57:33;102999.72;;;2.43;100.00
14117;BME280;7137;51.436;6.544;2023-01-23T01:00:34;103008.16;;;2.38;100.00
14117;BME280;7137;51.436;6.544;2023-01-23T01:03:37;103001.22;;;2.37;100.00
14117;BME280;7137;51.436;6.544;2023-01-23T01:06:39;103007.97;;;2.34;100.00
14117;BME280;7137;51.436;6.544;2023-01-23T01:09:42;103008.09;;;2.37;100.00
14117;BME280;7137;51.436;6.544;2023-01-23T01:12:44;103009.94;;;2.40;100.00
14117;BME280;7137;51.436;6.544;2023-01-23T01:15:47;103007.47;;;2.43;100.00
14117;BME280;7137;51.436;6.544;2023-01-23T01:18:48;103019.16;;;2.55;100.00
14117;BME280;7137;51.436;6.544;2023-01-23T01:21:51;103021.72;;;2.55;100.00
14117;BME280;7137;51.436;6.544;2023-01-23T01:24:53;103031.03;;;2.52;100.00
14117;BME280;7137;51.436;6.544;2023-01-23T01:27:54;103035.66;;;2.60;100.00
14117;BME280;7137;51.436;6.544;2023-01-23T01:30:56;103034.91;;;2.63;100.00
14117;BME280;7137;51.436;6.544;2023-01-23T01:33:58;103040.06;;;2.63;100.00
14117;BME280;7137;51.436;6.544;2023-01-23T01:37:01;103037.19;;;2.55;100.00
14117;BME280;7137;51.436;6.544;2023-01-23T01:40:02;103034.63;;;2.55;100.00
14117;BME280;7137;51.436;6.544;2023-01-23T01:43:06;103037.41;;;2.61;100.00
14117;BME280;7137;51.436;6.544;2023-01-23T01:46:18;103044.22;;;2.59;100.00
14117;BME280;7137;51.436;6.544;2023-01-23T01:49:22;103041.03;;;2.66;100.00
14117;BME280;7137;51.436;6.544;2023-01-23T01:52:27;103040.00;;;2.61;100.00
14117;BME280;7137;51.436;6.544;2023-01-23T01:55:29;103037.47;;;2.63;100.00
14117;BME280;7137;51.436;6.544;2023-01-23T01:58:31;103043.72;;;2.68;100.00
14117;BME280;7137;51.436;6.544;2023-01-23T02:01:33;103037.81;;;2.50;100.00
14117;BME280;7137;51.436;6.544;2023-01-23T02:04:38;103036.66;;;2.64;100.00
14117;BME280;7137;51.436;6.544;2023-01-23T02:07:47;103045.63;;;2.74;100.00
14117;BME280;7137;51.436;6.544;2023-01-23T02:10:50;103039.00;;;2.58;100.00
14117;BME280;7137;51.436;6.544;2023-01-23T02:13:52;103041.34;;;2.52;100.00
14117;BME280;7137;51.436;6.544;2023-01-23T02:16:56;103033.19;;;2.63;100.00
14117;BME280;7137;51.436;6.544;2023-01-23T02:20:07;103038.13;;;2.80;100.00
14117;BME280;7137;51.436;6.544;2023-01-23T02:23:18;103029.66;;;2.82;100.00
14117;BME280;7137;51.436;6.544;2023-01-23T02:26:27;103026.25;;;2.83;100.00
14117;BME280;7137;51.436;6.544;2023-01-23T02:29:39;103022.06;;;2.64;100.00
14117;BME280;7137;51.436;6.544;2023-01-23T02:32:41;103026.91;;;2.79;100.00
14117;BME280;7137;51.436;6.544;2023-01-23T02:35:43;103026.81;;;2.76;100.00
14117;BME280;7137;51.436;6.544;2023-01-23T02:38:50;103029.91;;;2.90;100.00
14117;BME280;7137;51.436;6.544;2023-01-23T02:41:55;103027.91;;;3.05;100.00
14117;BME280;7137;51.436;6.544;2023-01-23T02:44:58;103025.25;;;3.04;100.00
14117;BME280;7137;51.436;6.544;2023-01-23T02:47:59;103027.31;;;3.12;100.00
14117;BME280;7137;51.436;6.544;2023-01-23T02:51:01;103022.97;;;3.11;100.00
14117;BME280;7137;51.436;6.544;2023-01-23T02:54:03;103027.84;;;3.04;100.00
14117;BME280;7137;51.436;6.544;2023-01-23T02:57:06;103030.69;;;2.87;100.00
14117;BME280;7137;51.436;6.544;2023-01-23T03:00:10;103042.03;;;2.92;100.00
14117;BME280;7137;51.436;6.544;2023-01-23T03:03:19;103032.50;;;2.90;100.00
14117;BME280;7137;51.436;6.544;2023-01-23T03:06:20;103030.28;;;2.99;100.00
14117;BME280;7137;51.436;6.544;2023-01-23T03:09:22;103029.44;;;2.78;100.00
14117;BME280;7137;51.436;6.544;2023-01-23T03:12:25;103026.44;;;2.67;100.00
14117;BME280;7137;51.436;6.544;2023-01-23T03:15:26;103024.69;;;2.66;100.00
14117;BME280;7137;51.436;6.544;2023-01-23T03:18:28;103023.06;;;2.68;100.00
14117;BME280;7137;51.436;6.544;2023-01-23T03:21:31;103028.16;;;2.89;100.00
14117;BME280;7137;51.436;6.544;2023-01-23T03:24:33;103024.75;;;2.90;100.00
14117;BME280;7137;51.436;6.544;2023-01-23T03:27:36;103019.00;;;2.97;100.00
14117;BME280;7137;51.436;6.544;2023-01-23T03:30:38;103025.47;;;2.86;100.00
14117;BME280;7137;51.436;6.544;2023-01-23T03:33:39;103027.13;;;2.84;100.00
14117;BME280;7137;51.436;6.544;2023-01-23T03:36:42;103031.34;;;2.82;100.00
14117;BME280;7137;51.436;6.544;2023-01-23T03:39:44;103035.09;;;2.67;100.00
14117;BME280;7137;51.436;6.544;2023-01-23T03:43:05;103042.53;;;2.39;100.00
14117;BME280;7137;51.436;6.544;2023-01-23T03:46:08;103052.56;;;2.31;100.00
14117;BME280;7137;51.436;6.544;2023-01-23T03:49:09;103048.19;;;2.29;100.00
14117;BME280;7137;51.436;6.544;2023-01-23T03:52:11;103058.72;;;2.35;100.00
14117;BME280;7137;51.436;6.544;2023-01-23T03:55:12;103050.59;;;2.47;100.00
14117;BME280;7137;51.436;6.544;2023-01-23T03:58:15;103043.97;;;2.53;100.00
14117;BME280;7137;51.436;6.544;2023-01-23T04:01:17;103051.31;;;2.43;100.00
14117;BME280;7137;51.436;6.544;2023-01-23T04:04:18;103046.50;;;2.52;100.00
14117;BME280;7137;51.436;6.544;2023-01-23T04:07:20;103045.16;;;2.61;100.00
14117;BME280;7137;51.436;6.544;2023-01-23T04:10:22;103044.94;;;2.78;100.00
14117;BME280;7137;51.436;6.544;2023-01-23T04:13:25;103052.25;;;2.89;100.00
14117;BME280;7137;51.436;6.544;2023-01-23T04:16:26;103048.91;;;3.14;100.00
14117;BME280;7137;51.436;6.544;2023-01-23T04:19:28;103042.63;;;3.08;100.00
14117;BME280;7137;51.436;6.544;2023-01-23T04:22:30;103045.16;;;3.30;100.00
14117;BME280;7137;51.436;6.544;2023-01-23T04:25:31;103046.44;;;3.41;100.00
14117;BME280;7137;51.436;6.544;2023-01-23T04:28:34;103041.44;;;3.46;100.00
14117;BME280;7137;51.436;6.544;2023-01-23T04:31:36;103050.00;;;3.45;100.00
14117;BME280;7137;51.436;6.544;2023-01-23T04:34:37;103051.47;;;3.62;99.59
14117;BME280;7137;51.436;6.544;2023-01-23T04:37:39;103052.19;;;3.58;98.86
14117;BME280;7137;51.436;6.544;2023-01-23T04:40:41;103059.84;;;3.55;99.25
14117;BME280;7137;51.436;6.544;2023-01-23T04:43:44;103060.00;;;3.60;98.89
14117;BME280;7137;51.436;6.544;2023-01-23T04:46:45;103062.34;;;3.52;98.93
14117;BME280;7137;51.436;6.544;2023-01-23T04:49:50;103071.25;;;3.62;98.16
14117;BME280;7137;51.436;6.544;2023-01-23T04:52:51;103061.94;;;3.41;98.55
14117;BME280;7137;51.436;6.544;2023-01-23T04:55:53;103069.59;;;3.16;99.96
14117;BME280;7137;51.436;6.544;2023-01-23T04:58:56;103061.59;;;3.32;100.00
14117;BME280;7137;51.436;6.544;2023-01-23T05:01:57;103053.78;;;3.31;99.95
14117;BME280;7137;51.436;6.544;2023-01-23T05:04:59;103061.38;;;3.26;99.38
14117;BME280;7137;51.436;6.544;2023-01-23T05:08:00;103061.91;;;3.17;99.74
14117;BME280;7137;51.436;6.544;2023-01-23T05:11:02;103069.25;;;3.07;100.00
14117;BME280;7137;51.436;6.544;2023-01-23T05:14:05;103071.38;;;2.94;100.00
14117;BME280;7137;51.436;6.544;2023-01-23T05:17:06;103065.78;;;2.82;100.00
14117;BME280;7137;51.436;6.544;2023-01-23T05:20:10;103067.81;;;2.91;100.00
14117;BME280;7137;51.436;6.544;2023-01-23T05:23:11;103068.47;;;3.09;100.00
14117;BME280;7137;51.436;6.544;2023-01-23T05:26:13;103060.75;;;3.09;100.00
14117;BME280;7137;51.436;6.544;2023-01-23T05:29:16;103061.50;;;3.07;100.00
14117;BME280;7137;51.436;6.544;2023-01-23T05:32:17;103073.53;;;3.06;100.00
14117;BME280;7137;51.436;6.544;2023-01-23T05:35:19;103065.78;;;2.82;100.00
14117;BME280;7137;51.436;6.544;2023-01-23T05:38:20;103075.59;;;2.92;100.00
14117;BME280;7137;51.436;6.544;2023-01-23T05:41:22;103072.44;;;2.77;100.00
14117;BME280;7137;51.436;6.544;2023-01-23T05:44:26;103065.88;;;2.85;100.00
14117;BME280;7137;51.436;6.544;2023-01-23T05:47:27;103066.34;;;2.75;100.00
14117;BME280;7137;51.436;6.544;2023-01-23T05:50:29;103070.56;;;2.73;100.00
14117;BME280;7137;51.436;6.544;2023-01-23T05:53:30;103076.00;;;2.81;100.00
14117;BME280;7137;51.436;6.544;2023-01-23T05:56:32;103073.38;;;2.79;100.00
14117;BME280;7137;51.436;6.544;2023-01-23T05:59:35;103077.72;;;2.80;100.00
14117;BME280;7137;51.436;6.544;2023-01-23T06:02:36;103077.13;;;2.87;100.00
14117;BME280;7137;51.436;6.544;2023-01-23T06:05:39;103083.53;;;2.75;100.00
14117;BME280;7137;51.436;6.544;2023-01-23T06:08:40;103084.00;;;2.87;100.00
14117;BME280;7137;51.436;6.544;2023-01-23T06:11:42;103090.09;;;2.89;100.00
14117;BME280;7137;51.436;6.544;2023-01-23T06:14:45;103093.16;;;3.01;100.00
14117;BME280;7137;51.436;6.544;2023-01-23T06:17:47;103094.97;;;3.04;100.00
14117;BME280;7137;51.436;6.544;2023-01-23T06:20:48;103101.66;;;2.98;100.00
14117;BME280;7137;51.436;6.544;2023-01-23T06:23:50;103111.94;;;2.97;100.00
14117;BME280;7137;51.436;6.544;2023-01-23T06:26:52;103114.78;;;3.05;100.00
14117;BME280;7137;51.436;6.544;2023-01-23T06:29:55;103117.31;;;3.25;99.50
14117;BME280;7137;51.436;6.544;2023-01-23T06:32:56;103120.66;;;3.23;99.34
14117;BME280;7137;51.436;6.544;2023-01-23T06:35:59;103113.84;;;3.03;99.54
14117;BME280;7137;51.436;6.544;2023-01-23T06:39:00;103123.72;;;3.13;99.81
14117;BME280;7137;51.436;6.544;2023-01-23T06:42:02;103137.03;;;3.01;99.62
14117;BME280;7137;51.436;6.544;2023-01-23T06:45:08;103137.88;;;2.79;100.00
14117;BME280;7137;51.436;6.544;2023-01-23T06:48:10;103135.00;;;2.72;100.00
14117;BME280;7137;51.436;6.544;2023-01-23T06:51:11;103130.09;;;2.78;100.00
14117;BME280;7137;51.436;6.544;2023-01-23T06:54:13;103138.13;;;2.85;100.00
14117;BME280;7137;51.436;6.544;2023-01-23T06:57:14;103136.97;;;3.00;100.00
14117;BME280;7137;51.436;6.544;2023-01-23T07:00:18;103147.13;;;3.17;100.00
14117;BME280;7137;51.436;6.544;2023-01-23T07:03:20;103146.69;;;3.07;100.00
14117;BME280;7137;51.436;6.544;2023-01-23T07:06:22;103143.47;;;2.90;100.00
14117;BME280;7137;51.436;6.544;2023-01-23T07:09:23;103149.50;;;2.90;100.00
14117;BME280;7137;51.436;6.544;2023-01-23T07:12:25;103141.72;;;2.89;100.00
14117;BME280;7137;51.436;6.544;2023-01-23T07:15:28;103150.72;;;2.78;100.00
14117;BME280;7137;51.436;6.544;2023-01-23T07:18:29;103155.00;;;2.77;100.00
14117;BME280;7137;51.436;6.544;2023-01-23T07:21:32;103159.56;;;2.83;100.00
14117;BME280;7137;51.436;6.544;2023-01-23T07:24:33;103159.47;;;2.81;100.00
14117;BME280;7137;51.436;6.544;2023-01-23T07:27:35;103168.91;;;2.81;100.00
14117;BME280;7137;51.436;6.544;2023-01-23T07:30:38;103169.00;;;3.05;100.00
14117;BME280;7137;51.436;6.544;2023-01-23T07:33:40;103179.69;;;3.14;100.00
14117;BME280;7137;51.436;6.544;2023-01-23T07:36:41;103175.00;;;3.26;99.87
14117;BME280;7137;51.436;6.544;2023-01-23T07:39:43;103178.41;;;3.03;99.64
14117;BME280;7137;51.436;6.544;2023-01-23T07:42:44;103177.47;;;3.01;100.00
14117;BME280;7137;51.436;6.544;2023-01-23T07:45:47;103183.78;;;2.86;100.00
14117;BME280;7137;51.436;6.544;2023-01-23T07:48:49;103181.78;;;3.02;100.00
14117;BME280;7137;51.436;6.544;2023-01-23T07:51:51;103187.72;;;2.99;100.00
14117;BME280;7137;51.436;6.544;2023-01-23T07:54:52;103190.97;;;2.95;100.00
14117;BME280;7137;51.436;6.544;2023-01-23T07:57:54;103184.22;;;2.97;100.00
14117;BME280;7137;51.436;6.544;2023-01-23T08:00:57;103189.03;;;3.10;100.00
14117;BME280;7137;51.436;6.544;2023-01-23T08:03:58;103195.53;;;3.23;99.58
14117;BME280;7137;51.436;6.544;2023-01-23T08:07:00;103197.91;;;3.39;99.60
14117;BME280;7137;51.436;6.544;2023-01-23T08:10:02;103190.50;;;3.48;98.16
14117;BME280;7137;51.436;6.544;2023-01-23T08:13:04;103193.88;;;3.70;98.79
14117;BME280;7137;51.436;6.544;2023-01-23T08:16:07;103196.41;;;3.68;96.83
14117;BME280;7137;51.436;6.544;2023-01-23T08:19:09;103201.53;;;3.67;96.69
14117;BME280;7137;51.436;6.544;2023-01-23T08:22:10;103208.53;;;3.69;96.98
14117;BME280;7137;51.436;6.544;2023-01-23T08:25:12;103206.34;;;3.57;97.38
14117;BME280;7137;51.436;6.544;2023-01-23T08:28:13;103211.88;;;3.67;97.22
14117;BME280;7137;51.436;6.544;2023-01-23T08:31:16;103211.63;;;3.61;96.43
14117;BME280;7137;51.436;6.544;2023-01-23T08:34:18;103202.41;;;3.45;97.50
14117;BME280;7137;51.436;6.544;2023-01-23T08:37:19;103198.13;;;3.45;97.78
14117;BME280;7137;51.436;6.544;2023-01-23T08:40:21;103198.94;;;3.67;97.39
14117;BME280;7137;51.436;6.544;2023-01-23T08:43:22;103201.97;;;3.79;97.21
14117;BME280;7137;51.436;6.544;2023-01-23T08:46:25;103201.81;;;3.98;95.27
14117;BME280;7137;51.436;6.544;2023-01-23T08:49:27;103205.88;;;4.15;95.30
14117;BME280;7137;51.436;6.544;2023-01-23T08:52:28;103212.63;;;4.36;94.30
14117;BME280;7137;51.436;6.544;2023-01-23T08:55:30;103211.69;;;4.59;92.02
14117;BME280;7137;51.436;6.544;2023-01-23T08:58:32;103206.00;;;4.44;91.27
14117;BME280;7137;51.436;6.544;2023-01-23T09:01:35;103211.28;;;4.47;90.46
14117;BME280;7137;51.436;6.544;2023-01-23T09:04:37;103210.03;;;4.61;92.64
14117;BME280;7137;51.436;6.544;2023-01-23T09:07:39;103218.06;;;4.69;89.82
14117;BME280;7137;51.436;6.544;2023-01-23T09:10:40;103212.63;;;4.36;90.34
14117;BME280;7137;51.436;6.544;2023-01-23T09:13:42;103217.69;;;4.33;91.23
14117;BME280;7137;51.436;6.544;2023-01-23T09:16:46;103214.41;;;4.37;91.35
14117;BME280;7137;51.436;6.544;2023-01-23T09:19:48;103211.28;;;4.47;90.77
14117;BME280;7137;51.436;6.544;2023-01-23T09:22:50;103231.47;;;4.57;90.91
14117;BME280;7137;51.436;6.544;2023-01-23T09:25:51;103236.66;;;4.57;89.99
14117;BME280;7137;51.436;6.544;2023-01-23T09:28:53;103234.47;;;4.95;89.50
14117;BME280;7137;51.436;6.544;2023-01-23T09:31:57;103236.63;;;5.08;88.24
14117;BME280;7137;51.436;6.544;2023-01-23T09:34:58;103240.16;;;4.85;88.95
14117;BME280;7137;51.436;6.544;2023-01-23T09:38:02;103241.88;;;4.84;89.68
14117;BME280;7137;51.436;6.544;2023-01-23T09:41:08;103244.88;;;4.71;89.73
14117;BME280;7137;51.436;6.544;2023-01-23T09:44:14;103244.41;;;4.57;90.63
14117;BME280;7137;51.436;6.544;2023-01-23T09:47:26;103251.34;;;4.58;90.49
14117;BME280;7137;51.436;6.544;2023-01-23T09:50:32;103257.44;;;4.35;91.05
14117;BME280;7137;51.436;6.544;2023-01-23T09:53:39;103253.09;;;4.34;91.94
14117;BME280;7137;51.436;6.544;2023-01-23T09:56:44;103258.97;;;4.30;91.55
14117;BME280;7137;51.436;6.544;2023-01-23T09:59:50;103258.69;;;4.22;91.65
14117;BME280;7137;51.436;6.544;2023-01-23T10:02:54;103252.81;;;4.26;91.09
14117;BME280;7137;51.436;6.544;2023-01-23T10:06:07;103251.59;;;4.16;91.56
14117;BME280;7137;51.436;6.544;2023-01-23T10:09:31;103253.81;;;4.30;91.09
14117;BME280;7137;51.436;6.544;2023-01-23T10:12:43;103247.56;;;4.23;90.95
14117;BME280;7137;51.436;6.544;2023-01-23T10:16:17;103241.16;;;4.37;91.09
14117;BME280;7137;51.436;6.544;2023-01-23T10:19:37;103248.63;;;4.54;90.52
14117;BME280;7137;51.436;6.544;2023-01-23T10:22:46;103250.53;;;4.59;88.74
14117;BME280;7137;51.436;6.544;2023-01-23T10:25:50;103248.03;;;4.37;88.80
14117;BME280;7137;51.436;6.544;2023-01-23T10:28:56;103252.34;;;4.36;88.67
14117;BME280;7137;51.436;6.544;2023-01-23T10:32:00;103239.41;;;4.36;87.13
14117;BME280;7137;51.436;6.544;2023-01-23T10:35:12;103241.31;;;4.42;87.07
14117;BME280;7137;51.436;6.544;2023-01-23T10:38:24;103244.69;;;4.65;86.60
14117;BME280;7137;51.436;6.544;2023-01-23T10:41:27;103248.88;;;4.87;84.46
14117;BME280;7137;51.436;6.544;2023-01-23T10:44:28;103241.09;;;4.87;83.56
14117;BME280;7137;51.436;6.544;2023-01-23T10:47:33;103240.72;;;5.01;83.98
14117;BME280;7137;51.436;6.544;2023-01-23T10:50:37;103237.59;;;5.12;81.11
14117;BME280;7137;51.436;6.544;2023-01-23T10:53:39;103241.31;;;4.93;81.09
14117;BME280;7137;51.436;6.544;2023-01-23T10:56:48;103244.22;;;5.03;81.10
14117;BME280;7137;51.436;6.544;2023-01-23T10:59:53;103247.66;;;5.02;81.61
14117;BME280;7137;51.436;6.544;2023-01-23T11:06:21;103242.03;;;4.89;79.25
14117;BME280;7137;51.436;6.544;2023-01-23T11:09:25;103236.88;;;4.90;80.08
14117;BME280;7137;51.436;6.544;2023-01-23T11:12:28;103233.81;;;4.75;81.16
14117;BME280;7137;51.436;6.544;2023-01-23T11:15:31;103242.13;;;4.41;81.15
14117;BME280;7137;51.436;6.544;2023-01-23T11:18:37;103247.75;;;4.53;81.22
14117;BME280;7137;51.436;6.544;2023-01-23T11:21:52;103237.91;;;4.68;81.09
14117;BME280;7137;51.436;6.544;2023-01-23T11:24:54;103238.41;;;4.84;79.85
14117;BME280;7137;51.436;6.544;2023-01-23T11:27:56;103238.38;;;5.09;79.77
14117;BME280;7137;51.436;6.544;2023-01-23T11:31:00;103242.06;;;4.90;78.59
14117;BME280;7137;51.436;6.544;2023-01-23T11:34:08;103240.81;;;5.04;79.77
14117;BME280;7137;51.436;6.544;2023-01-23T11:37:16;103238.81;;;5.23;77.77
14117;BME280;7137;51.436;6.544;2023-01-23T11:40:19;103242.72;;;5.37;78.51
14117;BME280;7137;51.436;6.544;2023-01-23T11:43:21;103241.94;;;5.40;78.89
14117;BME280;7137;51.436;6.544;2023-01-23T11:46:35;103248.16;;;5.46;77.13
14117;BME280;7137;51.436;6.544;2023-01-23T11:53:18;103250.34;;;5.61;77.23
14117;BME280;7137;51.436;6.544;2023-01-23T11:56:29;103249.00;;;5.74;76.39
14117;BME280;7137;51.436;6.544;2023-01-23T11:59:44;103250.00;;;5.77;75.58
14117;BME280;7137;51.436;6.544;2023-01-23T12:03:10;103250.63;;;5.70;76.07
14117;BME280;7137;51.436;6.544;2023-01-23T12:06:26;103263.56;;;5.69;75.99
14117;BME280;7137;51.436;6.544;2023-01-23T12:09:41;103251.91;;;5.84;75.10
14117;BME280;7137;51.436;6.544;2023-01-23T12:12:57;103253.34;;;5.75;75.80
14117;BME280;7137;51.436;6.544;2023-01-23T12:16:10;103248.91;;;5.71;75.67
14117;BME280;7137;51.436;6.544;2023-01-23T12:19:24;103249.72;;;5.13;75.42
14117;BME280;7137;51.436;6.544;2023-01-23T12:22:40;103246.91;;;5.06;77.23
14117;BME280;7137;51.436;6.544;2023-01-23T12:25:50;103248.94;;;5.15;77.54
14117;BME280;7137;51.436;6.544;2023-01-23T12:29:23;103247.88;;;5.09;77.42
14117;BME280;7137;51.436;6.544;2023-01-23T12:32:41;103248.97;;;4.90;77.14
14117;BME280;7137;51.436;6.544;2023-01-23T12:35:53;103245.59;;;5.19;78.28
14117;BME280;7137;51.436;6.544;2023-01-23T12:39:05;103253.38;;;5.19;77.13
14117;BME280;7137;51.436;6.544;2023-01-23T12:42:19;103248.13;;;4.91;77.63
14117;BME280;7137;51.436;6.544;2023-01-23T12:45:25;103233.97;;;4.80;78.08
14117;BME280;7137;51.436;6.544;2023-01-23T12:48:31;103230.50;;;4.79;78.02
14117;BME280;7137;51.436;6.544;2023-01-23T12:51:36;103233.69;;;4.97;78.73
14117;BME280;7137;51.436;6.544;2023-01-23T12:54:42;103227.53;;;4.94;77.98
14117;BME280;7137;51.436;6.544;2023-01-23T12:57:51;103222.09;;;4.86;77.96
14117;BME280;7137;51.436;6.544;2023-01-23T13:01:03;103227.47;;;4.92;78.12
14117;BME280;7137;51.436;6.544;2023-01-23T13:04:17;103227.97;;;5.07;76.70
14117;BME280;7137;51.436;6.544;2023-01-23T13:07:27;103239.59;;;5.20;76.71
14117;BME280;7137;51.436;6.544;2023-01-23T13:10:52;103225.91;;;5.24;76.18
14117;BME280;7137;51.436;6.544;2023-01-23T13:14:20;103225.34;;;5.34;75.12
14117;BME280;7137;51.436;6.544;2023-01-23T13:17:38;103226.44;;;5.41;74.85
14117;BME280;7137;51.436;6.544;2023-01-23T13:20:54;103223.47;;;5.57;74.61
14117;BME280;7137;51.436;6.544;2023-01-23T13:24:28;103224.88;;;5.76;72.41
14117;BME280;7137;51.436;6.544;2023-01-23T13:27:49;103224.31;;;5.86;72.27
14117;BME280;7137;51.436;6.544;2023-01-23T13:31:00;103224.47;;;5.91;72.77
14117;BME280;7137;51.436;6.544;2023-01-23T13:34:04;103227.56;;;6.08;71.47
14117;BME280;7137;51.436;6.544;2023-01-23T13:37:46;103228.47;;;5.51;73.79
14117;BME280;7137;51.436;6.544;2023-01-23T13:44:26;103230.75;;;4.61;78.49
14117;BME280;7137;51.436;6.544;2023-01-23T13:47:36;103225.31;;;4.79;79.36
14117;BME280;7137;51.436;6.544;2023-01-23T13:51:00;103231.81;;;4.66;79.78
14117;BME280;7137;51.436;6.544;2023-01-23T13:54:12;103220.94;;;4.51;80.36
14117;BME280;7137;51.436;6.544;2023-01-23T13:57:32;103229.41;;;4.47;81.04
14117;BME280;7137;51.436;6.544;2023-01-23T14:00:37;103228.91;;;4.57;81.74
14117;BME280;7137;51.436;6.544;2023-01-23T14:03:47;103242.72;;;4.83;81.06
14117;BME280;7137;51.436;6.544;2023-01-23T14:07:22;103248.91;;;4.88;80.83
14117;BME280;7137;51.436;6.544;2023-01-23T14:10:45;103246.91;;;4.80;80.82
14117;BME280;7137;51.436;6.544;2023-01-23T14:13:48;103246.50;;;4.67;81.12
14117;BME280;7137;51.436;6.544;2023-01-23T14:16:50;103245.31;;;4.58;81.52
14117;BME280;7137;51.436;6.544;2023-01-23T14:20:00;103249.50;;;4.54;82.69
14117;BME280;7137;51.436;6.544;2023-01-23T14:23:02;103250.75;;;4.65;82.60
14117;BME280;7137;51.436;6.544;2023-01-23T14:26:09;103257.38;;;4.57;83.26
14117;BME280;7137;51.436;6.544;2023-01-23T14:29:19;103258.91;;;4.52;83.80
14117;BME280;7137;51.436;6.544;2023-01-23T14:32:22;103255.59;;;4.56;84.16
14117;BME280;7137;51.436;6.544;2023-01-23T14:35:27;103262.00;;;4.66;84.55
14117;BME280;7137;51.436;6.544;2023-01-23T14:38:31;103246.31;;;4.63;85.11
14117;BME280;7137;51.436;6.544;2023-01-23T14:41:38;103247.06;;;4.59;84.90
14117;BME280;7137;51.436;6.544;2023-01-23T14:44:42;103243.69;;;4.61;84.88
14117;BME280;7137;51.436;6.544;2023-01-23T14:47:46;103243.22;;;4.73;85.85
14117;BME280;7137;51.436;6.544;2023-01-23T14:50:49;103251.72;;;4.69;85.40
14117;BME280;7137;51.436;6.544;2023-01-23T14:54:03;103250.88;;;4.95;84.33
14117;BME280;7137;51.436;6.544;2023-01-23T14:57:06;103264.41;;;4.87;83.97
14117;BME280;7137;51.436;6.544;2023-01-23T15:00:13;103269.06;;;4.71;84.12
14117;BME280;7137;51.436;6.544;2023-01-23T15:03:38;103267.81;;;4.60;83.97
14117;BME280;7137;51.436;6.544;2023-01-23T15:06:41;103260.00;;;4.59;83.18
14117;BME280;7137;51.436;6.544;2023-01-23T15:09:43;103263.47;;;4.35;83.65
14117;BME280;7137;51.436;6.544;2023-01-23T15:12:51;103263.34;;;4.31;84.14
14117;BME280;7137;51.436;6.544;2023-01-23T15:15:56;103266.44;;;4.22;84.64
14117;BME280;7137;51.436;6.544;2023-01-23T15:19:18;103263.19;;;4.26;84.70
14117;BME280;7137;51.436;6.544;2023-01-23T15:22:25;103263.22;;;4.28;85.38
14117;BME280;7137;51.436;6.544;2023-01-23T15:25:29;103251.50;;;4.37;85.42
14117;BME280;7137;51.436;6.544;2023-01-23T15:28:38;103253.22;;;4.62;84.19
14117;BME280;7137;51.436;6.544;2023-01-23T15:31:41;103252.25;;;4.84;83.30
14117;BME280;7137;51.436;6.544;2023-01-23T15:34:50;103249.13;;;4.69;83.57
14117;BME280;7137;51.436;6.544;2023-01-23T15:37:54;103254.44;;;4.48;83.14
14117;BME280;7137;51.436;6.544;2023-01-23T15:40:59;103248.63;;;4.54;83.49
14117;BME280;7137;51.436;6.544;2023-01-23T15:44:00;103248.66;;;4.55;82.66
14117;BME280;7137;51.436;6.544;2023-01-23T15:47:02;103238.47;;;4.60;82.30
14117;BME280;7137;51.436;6.544;2023-01-23T15:50:04;103231.47;;;4.57;81.75
14117;BME280;7137;51.436;6.544;2023-01-23T15:53:12;103232.50;;;4.62;81.67
14117;BME280;7137;51.436;6.544;2023-01-23T15:56:24;103226.63;;;4.66;80.53
14117;BME280;7137;51.436;6.544;2023-01-23T15:59:29;103219.88;;;4.71;80.10
14117;BME280;7137;51.436;6.544;2023-01-23T16:02:33;103216.72;;;4.55;81.29
14117;BME280;7137;51.436;6.544;2023-01-23T16:05:35;103214.19;;;4.56;81.58
14117;BME280;7137;51.436;6.544;2023-01-23T16:08:39;103221.88;;;4.53;81.65
14117;BME280;7137;51.436;6.544;2023-01-23T16:11:40;103221.31;;;4.63;81.97
14117;BME280;7137;51.436;6.544;2023-01-23T16:14:42;103217.03;;;4.64;81.16
14117;BME280;7137;51.436;6.544;2023-01-23T16:17:44;103228.44;;;4.69;81.53
14117;BME280;7137;51.436;6.544;2023-01-23T16:20:45;103221.50;;;4.68;83.02
14117;BME280;7137;51.436;6.544;2023-01-23T16:23:48;103225.47;;;4.84;82.07
14117;BME280;7137;51.436;6.544;2023-01-23T16:26:50;103230.50;;;4.79;80.59
14117;BME280;7137;51.436;6.544;2023-01-23T16:29:56;103227.13;;;4.82;80.60
14117;BME280;7137;51.436;6.544;2023-01-23T16:32:58;103232.31;;;4.82;80.86
14117;BME280;7137;51.436;6.544;2023-01-23T16:35:59;103226.72;;;4.69;80.83
14117;BME280;7137;51.436;6.544;2023-01-23T16:39:03;103235.69;;;4.79;80.25
14117;BME280;7137;51.436;6.544;2023-01-23T16:42:04;103237.31;;;4.77;80.75